createdAt,value
2023-01-15T00:01:22.800Z,90.62
2023-01-15T00:03:53.389Z,91.25
2023-01-15T00:06:21.820Z,91.69
2023-01-15T00:08:54.910Z,91.99
2023-01-15T00:11:23.416Z,91.49
2023-01-15T00:13:54.758Z,91.30
2023-01-15T00:16:24.863Z,90.67
2023-01-15T00:18:53.915Z,91.40
2023-01-15T00:21:21.493Z,91.84
2023-01-15T00:24:07.607Z,91.27
2023-01-15T00:26:53.639Z,91.81
2023-01-15T00:29:22.179Z,91.41
2023-01-15T00:32:04.606Z,92.20
2023-01-15T00:34:32.913Z,91.52
2023-01-15T00:37:08.173Z,90.71
2023-01-15T00:39:35.964Z,91.07
2023-01-15T00:42:02.989Z,91.18
2023-01-15T00:44:29.723Z,89.83
2023-01-15T00:47:00.006Z,90.26
2023-01-15T00:49:56.909Z,90.49
2023-01-15T00:52:23.878Z,89.03
2023-01-15T00:54:53.190Z,87.68
2023-01-15T00:57:21.466Z,88.37
2023-01-15T00:59:48.869Z,86.65
2023-01-15T01:02:16.008Z,87.10
2023-01-15T01:04:45.770Z,87.49
2023-01-15T01:07:13.815Z,86.40
2023-01-15T01:09:40.535Z,86.08
2023-01-15T01:12:07.304Z,86.08
2023-01-15T01:14:34.046Z,84.73
2023-01-15T01:17:00.795Z,85.41
2023-01-15T01:19:27.495Z,84.05
2023-01-15T01:21:54.536Z,84.67
2023-01-15T01:24:23.710Z,84.55
2023-01-15T01:26:53.457Z,84.30
2023-01-15T01:29:22.652Z,84.09
2023-01-15T01:31:51.400Z,84.50
2023-01-15T01:34:18.154Z,85.06
2023-01-15T01:36:45.408Z,85.15
2023-01-15T01:39:17.648Z,84.12
2023-01-15T01:41:45.142Z,84.56
2023-01-15T01:44:33.489Z,85.32
2023-01-15T01:47:03.119Z,86.28
2023-01-15T01:49:31.129Z,86.09
2023-01-15T01:52:11.359Z,87.39
2023-01-15T01:54:39.136Z,87.63
2023-01-15T01:57:07.389Z,87.39
2023-01-15T01:59:34.537Z,87.23
2023-01-15T02:02:01.484Z,87.52
2023-01-15T02:04:29.984Z,87.17
2023-01-15T02:06:59.037Z,86.93
2023-01-15T02:09:25.694Z,87.48
2023-01-15T02:11:57.644Z,88.44
2023-01-15T02:14:39.257Z,87.53
2023-01-15T02:17:22.413Z,87.14
2023-01-15T02:20:06.249Z,86.47
2023-01-15T02:23:17.762Z,87.17
2023-01-15T02:26:12.052Z,87.71
2023-01-15T02:28:42.575Z,87.84
2023-01-15T02:31:25.477Z,86.78
2023-01-15T02:34:01.410Z,86.67
2023-01-15T02:36:30.778Z,86.95
2023-01-15T02:39:00.174Z,87.72
2023-01-15T02:41:33.374Z,87.03
2023-01-15T02:44:03.699Z,85.84
2023-01-15T02:46:34.822Z,86.54
2023-01-15T02:49:04.964Z,87.20
2023-01-15T02:51:39.623Z,87.75
2023-01-15T02:54:12.063Z,86.42
2023-01-15T02:56:41.156Z,87.28
2023-01-15T02:59:13.283Z,86.94
2023-01-15T03:01:51.793Z,86.37
2023-01-15T03:04:43.746Z,86.90
2023-01-15T03:07:19.472Z,86.90
2023-01-15T03:09:48.542Z,86.33
2023-01-15T03:12:30.526Z,86.01
2023-01-15T03:15:03.437Z,86.78
2023-01-15T03:17:40.074Z,85.43
2023-01-15T03:20:10.192Z,85.54
2023-01-15T03:22:41.189Z,85.76
2023-01-15T03:25:16.636Z,84.84
2023-01-15T03:27:43.478Z,84.78
2023-01-15T03:30:16.191Z,84.28
2023-01-15T03:32:43.285Z,85.13
2023-01-15T03:35:50.155Z,85.12
2023-01-15T03:38:21.641Z,84.85
2023-01-15T03:41:08.393Z,84.11
2023-01-15T03:43:56.805Z,84.23
2023-01-15T03:46:29.025Z,83.15
2023-01-15T03:49:36.248Z,82.93
2023-01-15T03:52:11.140Z,82.47
2023-01-15T03:54:52.819Z,82.84
2023-01-15T03:57:38.027Z,82.52
2023-01-15T04:00:13.938Z,82.79
2023-01-15T04:02:41.583Z,82.58
2023-01-15T04:05:08.437Z,83.55
2023-01-15T04:07:34.965Z,83.50
2023-01-15T04:10:01.749Z,82.50
2023-01-15T04:12:28.974Z,81.70
2023-01-15T04:14:55.545Z,81.80
2023-01-15T04:17:22.137Z,81.66
2023-01-15T04:19:48.785Z,82.09
2023-01-15T04:22:15.302Z,81.16
2023-01-15T04:24:42.063Z,81.64
2023-01-15T04:27:08.713Z,81.44
2023-01-15T04:29:35.268Z,82.11
2023-01-15T04:32:01.971Z,82.13
2023-01-15T04:34:29.239Z,82.82
2023-01-15T04:36:56.293Z,81.86
2023-01-15T04:39:23.293Z,82.03
2023-01-15T04:42:08.434Z,81.45
2023-01-15T04:44:35.276Z,81.17
2023-01-15T04:47:01.878Z,81.13
2023-01-15T04:49:28.564Z,81.19
2023-01-15T04:51:55.192Z,81.75
2023-01-15T04:54:22.738Z,81.95
2023-01-15T04:56:51.090Z,80.98
2023-01-15T04:59:19.345Z,80.89
2023-01-15T05:02:01.857Z,80.70
2023-01-15T05:04:29.528Z,81.88
2023-01-15T05:06:56.504Z,81.84
2023-01-15T05:09:23.164Z,81.27
2023-01-15T05:11:49.824Z,81.90
2023-01-15T05:14:16.355Z,81.71
2023-01-15T05:16:42.955Z,81.24
2023-01-15T05:19:10.564Z,81.71
2023-01-15T05:21:39.710Z,81.68
2023-01-15T05:24:08.819Z,81.69
2023-01-15T05:26:35.982Z,82.05
2023-01-15T05:29:03.375Z,81.02
2023-01-15T05:31:30.423Z,81.37
2023-01-15T05:33:57.200Z,81.30
2023-01-15T05:36:25.369Z,80.49
2023-01-15T05:38:54.305Z,79.74
2023-01-15T05:41:40.771Z,80.31
2023-01-15T05:44:09.640Z,80.66
2023-01-15T05:46:36.819Z,80.74
2023-01-15T05:49:05.506Z,79.84
2023-01-15T05:51:32.057Z,80.41
2023-01-15T05:53:58.709Z,80.23
2023-01-15T05:56:25.370Z,79.99
2023-01-15T05:58:52.455Z,80.44
2023-01-15T06:01:19.154Z,80.08
2023-01-15T06:03:46.681Z,80.55
2023-01-15T06:06:13.923Z,79.91
2023-01-15T06:08:40.480Z,79.49
2023-01-15T06:11:07.384Z,80.11
2023-01-15T06:13:34.529Z,79.78
2023-01-15T06:16:01.606Z,79.88
2023-01-15T06:18:28.199Z,79.63
2023-01-15T06:20:54.752Z,80.11
2023-01-15T06:23:21.795Z,79.96
2023-01-15T06:25:48.318Z,79.98
2023-01-15T06:28:14.872Z,79.26
2023-01-15T06:30:41.567Z,79.56
2023-01-15T06:33:08.092Z,80.42
2023-01-15T06:35:35.367Z,79.37
2023-01-15T06:38:02.123Z,79.34
2023-01-15T06:40:29.288Z,79.70
2023-01-15T06:43:17.209Z,79.28
2023-01-15T06:46:02.897Z,78.47
2023-01-15T06:48:29.531Z,77.96
2023-01-15T06:50:56.248Z,77.69
2023-01-15T06:53:23.077Z,78.46
2023-01-15T06:55:49.783Z,78.23
2023-01-15T06:58:16.370Z,77.21
2023-01-15T07:00:44.216Z,77.06
2023-01-15T07:03:14.415Z,78.10
2023-01-15T07:05:41.253Z,77.12
2023-01-15T07:08:07.810Z,77.01
2023-01-15T07:10:35.592Z,76.37
2023-01-15T07:13:02.623Z,76.99
2023-01-15T07:15:29.341Z,77.52
2023-01-15T07:17:57.387Z,77.74
2023-01-15T07:20:28.388Z,77.08
2023-01-15T07:22:55.211Z,76.91
2023-01-15T07:25:22.152Z,77.24
2023-01-15T07:27:48.702Z,76.67
2023-01-15T07:30:16.397Z,77.73
2023-01-15T07:32:45.072Z,77.53
2023-01-15T07:35:11.573Z,77.41
2023-01-15T07:37:39.679Z,77.76
2023-01-15T07:40:06.459Z,77.08
2023-01-15T07:42:51.641Z,77.29
2023-01-15T07:45:37.019Z,77.54
2023-01-15T07:48:21.911Z,77.92
2023-01-15T07:50:48.632Z,77.53
2023-01-15T07:53:15.548Z,78.28
2023-01-15T07:55:42.071Z,77.73
2023-01-15T07:58:08.846Z,77.84
2023-01-15T08:00:35.440Z,77.43
2023-01-15T08:03:03.675Z,77.74
2023-01-15T08:05:30.270Z,77.94
2023-01-15T08:07:56.819Z,76.82
2023-01-15T08:10:25.369Z,77.01
2023-01-15T08:13:10.653Z,77.38
2023-01-15T08:15:42.950Z,76.94
2023-01-15T08:18:09.685Z,76.90
2023-01-15T08:20:37.806Z,75.52
2023-01-15T08:23:04.566Z,75.40
2023-01-15T08:25:33.746Z,74.82
2023-01-15T08:28:02.524Z,76.65
2023-01-15T08:30:29.186Z,76.18
2023-01-15T08:32:59.636Z,76.29
2023-01-15T08:35:26.499Z,74.97
2023-01-15T08:37:53.077Z,74.99
2023-01-15T08:40:19.662Z,75.11
2023-01-15T08:42:46.632Z,75.10
2023-01-15T08:45:13.452Z,74.83
2023-01-15T08:47:43.145Z,74.53
2023-01-15T08:50:10.436Z,75.02
2023-01-15T08:52:38.517Z,75.87
2023-01-15T08:55:05.721Z,75.48
2023-01-15T08:57:32.562Z,75.34
2023-01-15T09:00:01.019Z,75.21
2023-01-15T09:02:30.041Z,75.38
2023-01-15T09:04:57.028Z,75.36
2023-01-15T09:07:23.973Z,75.79
2023-01-15T09:09:50.729Z,74.97
2023-01-15T09:12:17.434Z,75.61
2023-01-15T09:14:58.153Z,75.09
2023-01-15T09:17:28.994Z,74.16
2023-01-15T09:19:55.586Z,73.56
2023-01-15T09:22:22.257Z,73.74
2023-01-15T09:24:48.930Z,73.68
2023-01-15T09:27:16.130Z,72.49
2023-01-15T09:29:42.620Z,71.77
2023-01-15T09:32:10.647Z,71.46
2023-01-15T09:34:37.276Z,71.40
2023-01-15T09:37:03.975Z,71.72
2023-01-15T09:39:30.646Z,71.89
2023-01-15T09:42:09.404Z,71.16
2023-01-15T09:44:54.766Z,70.16
2023-01-15T09:47:26.201Z,70.38
2023-01-15T09:49:52.749Z,69.54
2023-01-15T09:52:57.831Z,68.39
2023-01-15T09:55:31.957Z,68.22
2023-01-15T09:58:01.002Z,68.68
2023-01-15T10:00:33.342Z,69.12
2023-01-15T10:03:04.611Z,67.68
2023-01-15T10:05:55.262Z,67.07
2023-01-15T10:08:32.206Z,66.79
2023-01-15T10:11:02.756Z,67.53
2023-01-15T10:13:39.213Z,66.64
2023-01-15T10:16:06.324Z,65.16
2023-01-15T10:18:32.906Z,63.20
2023-01-15T10:21:18.272Z,63.13
2023-01-15T10:23:50.601Z,63.88
2023-01-15T10:26:35.921Z,61.35
2023-01-15T10:29:17.755Z,61.99
2023-01-15T10:31:54.393Z,62.92
2023-01-15T10:34:29.592Z,62.66
2023-01-15T10:37:05.492Z,64.03
2023-01-15T10:39:32.585Z,62.92
2023-01-15T10:42:02.046Z,61.74
2023-01-15T10:44:34.381Z,61.31
2023-01-15T10:47:02.914Z,61.96
2023-01-15T10:49:33.643Z,63.50
2023-01-15T10:52:06.618Z,64.08
2023-01-15T10:54:45.293Z,62.79
2023-01-15T10:57:15.944Z,62.40
2023-01-15T10:59:47.784Z,63.69
2023-01-15T11:02:24.253Z,64.07
2023-01-15T11:04:51.092Z,63.41
2023-01-15T11:07:18.224Z,62.25
2023-01-15T11:09:44.860Z,62.29
2023-01-15T11:12:26.794Z,61.91
2023-01-15T11:15:11.781Z,61.19
2023-01-15T11:18:05.690Z,57.56
2023-01-15T11:20:37.383Z,57.48
2023-01-15T11:23:08.624Z,57.42
2023-01-15T11:25:35.498Z,58.93
2023-01-15T11:28:08.898Z,56.84
2023-01-15T11:30:38.548Z,58.83
2023-01-15T11:33:06.750Z,60.42
2023-01-15T11:35:34.240Z,61.34
2023-01-15T11:38:08.644Z,61.72
2023-01-15T11:40:35.206Z,62.04
2023-01-15T11:43:20.778Z,62.47
2023-01-15T11:46:06.798Z,63.01
2023-01-15T11:49:05.375Z,63.98
2023-01-15T11:51:35.731Z,63.24
2023-01-15T11:54:04.284Z,64.84
2023-01-15T11:56:35.321Z,64.09
2023-01-15T11:59:03.659Z,64.85
2023-01-15T12:01:31.833Z,65.24
2023-01-15T12:03:59.090Z,65.38
2023-01-15T12:06:52.848Z,64.49
2023-01-15T12:09:25.704Z,65.17
2023-01-15T12:12:01.373Z,65.35
2023-01-15T12:14:46.868Z,64.57
2023-01-15T12:17:21.095Z,63.92
2023-01-15T12:20:11.175Z,64.56
2023-01-15T12:22:37.903Z,62.35
2023-01-15T12:25:23.569Z,60.17
2023-01-15T12:28:04.494Z,59.02
2023-01-15T12:30:36.553Z,61.55
2023-01-15T12:33:21.678Z,61.48
2023-01-15T12:35:58.763Z,62.28
2023-01-15T12:38:38.453Z,62.28
2023-01-15T12:41:10.763Z,62.36
2023-01-15T12:43:55.843Z,62.61
2023-01-15T12:46:29.412Z,66.87
2023-01-15T12:49:03.518Z,69.18
2023-01-15T12:51:34.090Z,69.07
2023-01-15T12:54:14.504Z,67.73
2023-01-15T12:57:01.815Z,67.20
2023-01-15T12:59:49.810Z,66.41
2023-01-15T13:02:33.820Z,66.79
2023-01-15T13:05:19.420Z,66.54
2023-01-15T13:07:52.553Z,66.10
2023-01-15T13:10:43.784Z,66.24
2023-01-15T13:13:34.577Z,65.49
2023-01-15T13:16:10.601Z,66.47
2023-01-15T13:18:40.292Z,64.63
2023-01-15T13:21:17.544Z,64.59
2023-01-15T13:23:53.198Z,63.73
2023-01-15T13:26:19.790Z,64.26
2023-01-15T13:29:18.593Z,64.22
2023-01-15T13:31:51.210Z,64.23
2023-01-15T13:34:27.534Z,64.32
2023-01-15T13:36:56.842Z,64.90
2023-01-15T13:39:25.151Z,65.81
2023-01-15T13:42:13.790Z,65.33
2023-01-15T13:44:46.941Z,65.08
2023-01-15T13:47:17.749Z,65.81
2023-01-15T13:49:53.146Z,68.13
2023-01-15T13:52:31.540Z,68.68
2023-01-15T13:55:20.628Z,68.88
2023-01-15T13:57:49.132Z,68.31
2023-01-15T14:00:36.709Z,68.49
2023-01-15T14:03:23.311Z,69.57
2023-01-15T14:06:00.384Z,71.29
2023-01-15T14:08:28.562Z,73.18
2023-01-15T14:10:55.620Z,76.71
2023-01-15T14:13:25.003Z,76.95
2023-01-15T14:16:10.433Z,77.60
2023-01-15T14:18:40.129Z,76.45
2023-01-15T14:21:19.308Z,74.30
2023-01-15T14:23:53.435Z,74.17
2023-01-15T14:26:26.142Z,75.47
2023-01-15T14:29:13.203Z,74.11
2023-01-15T14:31:45.284Z,72.46
2023-01-15T14:34:14.685Z,72.11
2023-01-15T14:36:47.528Z,71.80
2023-01-15T14:39:24.674Z,72.80
2023-01-15T14:42:32.259Z,72.70
2023-01-15T14:45:06.074Z,73.91
2023-01-15T14:47:35.215Z,74.41
2023-01-15T14:50:26.726Z,73.15
2023-01-15T14:52:55.273Z,73.57
2023-01-15T14:55:23.769Z,71.93
2023-01-15T14:58:04.942Z,72.15
2023-01-15T15:00:35.330Z,71.33
2023-01-15T15:03:04.739Z,71.60
2023-01-15T15:05:57.790Z,71.58
2023-01-15T15:08:29.760Z,71.66
2023-01-15T15:10:57.991Z,74.15
2023-01-15T15:13:36.386Z,74.89
2023-01-15T15:16:08.380Z,76.20
2023-01-15T15:18:39.499Z,76.21
2023-01-15T15:21:26.323Z,77.25
2023-01-15T15:23:58.948Z,78.89
2023-01-15T15:26:27.530Z,79.98
2023-01-15T15:29:54.688Z,81.00
2023-01-15T15:32:23.026Z,81.28
2023-01-15T15:34:53.637Z,82.50
2023-01-15T15:37:22.178Z,83.07
2023-01-15T15:39:48.743Z,85.05
2023-01-15T15:42:41.694Z,84.15
2023-01-15T15:45:35.893Z,83.87
2023-01-15T15:48:29.772Z,82.13
2023-01-15T15:50:56.374Z,83.11
2023-01-15T15:53:22.932Z,82.35
2023-01-15T15:55:49.748Z,82.17
2023-01-15T15:58:22.562Z,82.66
2023-01-15T16:00:49.503Z,81.12
2023-01-15T16:03:21.020Z,83.06
2023-01-15T16:06:06.788Z,83.22
2023-01-15T16:08:34.471Z,83.90
2023-01-15T16:11:03.078Z,84.59
2023-01-15T16:13:38.790Z,86.11
2023-01-15T16:16:08.295Z,85.62
2023-01-15T16:18:41.086Z,85.43
2023-01-15T16:21:11.878Z,86.14
2023-01-15T16:23:38.451Z,86.64
2023-01-15T16:26:14.515Z,86.38
2023-01-15T16:28:43.676Z,86.40
2023-01-15T16:31:11.127Z,86.87
2023-01-15T16:33:38.733Z,87.13
2023-01-15T16:36:08.602Z,86.44
2023-01-15T16:38:37.412Z,86.10
2023-01-15T16:41:04.351Z,85.83
2023-01-15T16:43:31.552Z,85.73
2023-01-15T16:46:16.215Z,86.62
2023-01-15T16:48:47.190Z,87.55
2023-01-15T16:51:32.399Z,87.22
2023-01-15T16:54:03.629Z,88.32
2023-01-15T16:56:37.484Z,89.74
2023-01-15T16:59:24.289Z,90.23
2023-01-15T17:01:52.711Z,92.07
2023-01-15T17:04:25.582Z,92.94
2023-01-15T17:06:56.277Z,92.68
2023-01-15T17:09:22.956Z,92.08
2023-01-15T17:11:50.878Z,92.89
2023-01-15T17:14:25.110Z,92.95
2023-01-15T17:17:10.091Z,92.86
2023-01-15T17:19:36.704Z,93.63
2023-01-15T17:22:03.286Z,92.55
2023-01-15T17:24:29.846Z,91.85
2023-01-15T17:26:57.910Z,92.28
2023-01-15T17:29:24.615Z,92.03
2023-01-15T17:31:51.223Z,91.81
2023-01-15T17:34:23.578Z,92.44
2023-01-15T17:36:51.830Z,93.37
2023-01-15T17:39:22.177Z,93.36
2023-01-15T17:41:49.038Z,93.61
2023-01-15T17:44:15.883Z,93.41
2023-01-15T17:46:42.716Z,92.29
2023-01-15T17:49:09.393Z,92.06
2023-01-15T17:51:36.071Z,90.69
2023-01-15T17:54:02.584Z,89.64
2023-01-15T17:56:47.970Z,89.83
2023-01-15T17:59:33.335Z,88.38
2023-01-15T18:02:18.520Z,86.37
2023-01-15T18:05:06.185Z,85.18
2023-01-15T18:07:39.506Z,84.74
2023-01-15T18:10:06.783Z,84.12
2023-01-15T18:12:33.292Z,84.39
2023-01-15T18:15:00.639Z,84.82
2023-01-15T18:17:27.280Z,84.19
2023-01-15T18:19:55.742Z,83.37
2023-01-15T18:22:22.539Z,83.90
2023-01-15T18:24:49.046Z,83.13
2023-01-15T18:27:15.591Z,83.42
2023-01-15T18:29:42.489Z,83.54
2023-01-15T18:32:09.622Z,83.17
2023-01-15T18:34:38.988Z,82.65
2023-01-15T18:37:13.501Z,82.60
2023-01-15T18:39:40.167Z,82.49
2023-01-15T18:42:09.545Z,82.74
2023-01-15T18:44:55.557Z,81.75
2023-01-15T18:47:24.936Z,81.85
2023-01-15T18:49:53.786Z,82.20
2023-01-15T18:52:39.845Z,81.41
2023-01-15T18:55:20.219Z,81.36
2023-01-15T18:57:50.283Z,81.04
2023-01-15T19:00:18.275Z,81.47
2023-01-15T19:02:46.069Z,82.43
2023-01-15T19:05:15.264Z,82.13
2023-01-15T19:07:44.976Z,81.50
2023-01-15T19:10:12.479Z,81.14
2023-01-15T19:12:39.264Z,81.10
2023-01-15T19:15:25.323Z,81.04
2023-01-15T19:18:10.738Z,81.25
2023-01-15T19:20:37.838Z,79.81
2023-01-15T19:23:06.033Z,79.31
2023-01-15T19:25:43.718Z,79.97
2023-01-15T19:28:11.768Z,79.35
2023-01-15T19:30:39.817Z,79.27
2023-01-15T19:33:07.664Z,80.08
2023-01-15T19:35:36.930Z,79.98
2023-01-15T19:38:08.685Z,79.08
2023-01-15T19:40:38.178Z,78.71
2023-01-15T19:43:24.008Z,79.57
2023-01-15T19:46:09.156Z,79.08
2023-01-15T19:48:54.230Z,78.61
2023-01-15T19:51:21.417Z,78.73
2023-01-15T19:53:48.215Z,78.67
2023-01-15T19:56:14.871Z,79.64
2023-01-15T19:58:41.465Z,79.54
2023-01-15T20:01:15.870Z,79.79
2023-01-15T20:03:42.695Z,79.06
2023-01-15T20:06:09.269Z,79.25
2023-01-15T20:08:35.814Z,79.10
2023-01-15T20:11:02.508Z,79.57
2023-01-15T20:13:47.617Z,80.16
2023-01-15T20:16:15.655Z,78.94
2023-01-15T20:18:42.270Z,79.21
2023-01-15T20:21:09.882Z,79.60
2023-01-15T20:23:36.879Z,79.27
2023-01-15T20:26:10.863Z,79.37
2023-01-15T20:28:37.908Z,79.44
2023-01-15T20:31:06.803Z,79.23
2023-01-15T20:33:33.780Z,78.08
2023-01-15T20:36:04.218Z,78.01
2023-01-15T20:38:31.327Z,78.22
2023-01-15T20:41:17.908Z,77.96
2023-01-15T20:44:03.012Z,77.87
2023-01-15T20:46:29.585Z,77.64
2023-01-15T20:49:14.905Z,77.38
2023-01-15T20:51:41.907Z,77.56
2023-01-15T20:54:08.506Z,78.26
2023-01-15T20:56:35.455Z,78.47
2023-01-15T20:59:02.267Z,77.90
2023-01-15T21:01:29.658Z,78.04
2023-01-15T21:03:56.286Z,78.84
2023-01-15T21:06:23.052Z,77.66
2023-01-15T21:08:49.763Z,77.98
2023-01-15T21:11:16.677Z,77.92
2023-01-15T21:13:45.250Z,78.69
2023-01-15T21:16:12.557Z,78.72
2023-01-15T21:18:43.228Z,78.61
2023-01-15T21:21:11.000Z,78.56
2023-01-15T21:23:37.590Z,79.60
2023-01-15T21:26:04.168Z,79.53
2023-01-15T21:28:30.867Z,80.01
2023-01-15T21:30:57.710Z,80.36
2023-01-15T21:33:24.253Z,79.82
2023-01-15T21:35:50.911Z,80.61
2023-01-15T21:38:17.469Z,79.81
2023-01-15T21:40:44.110Z,80.90
2023-01-15T21:43:29.606Z,80.73
2023-01-15T21:46:05.602Z,81.25
2023-01-15T21:48:32.725Z,80.47
2023-01-15T21:50:59.354Z,80.08
2023-01-15T21:53:25.955Z,79.64
2023-01-15T21:55:52.726Z,80.17
2023-01-15T21:58:19.813Z,80.37
2023-01-15T22:00:46.345Z,80.94
2023-01-15T22:03:17.389Z,80.57
2023-01-15T22:05:44.625Z,80.94
2023-01-15T22:08:11.265Z,80.92
2023-01-15T22:10:38.027Z,81.65
2023-01-15T22:13:04.548Z,81.21
2023-01-15T22:15:31.098Z,81.95
2023-01-15T22:17:59.057Z,81.49
2023-01-15T22:20:25.642Z,81.15
2023-01-15T22:22:52.325Z,81.17
2023-01-15T22:25:18.875Z,81.15
2023-01-15T22:27:45.447Z,80.94
2023-01-15T22:30:13.356Z,81.80
2023-01-15T22:32:39.912Z,80.85
2023-01-15T22:35:08.475Z,80.09
2023-01-15T22:37:35.119Z,80.35
2023-01-15T22:40:07.473Z,80.52
2023-01-15T22:42:34.153Z,80.39
2023-01-15T22:45:01.176Z,80.04
2023-01-15T22:47:28.729Z,79.54
2023-01-15T22:49:55.395Z,79.38
2023-01-15T22:52:25.484Z,79.85
2023-01-15T22:54:52.289Z,79.84
2023-01-15T22:57:19.349Z,80.12
2023-01-15T22:59:46.593Z,79.97
2023-01-15T23:02:13.609Z,80.39
2023-01-15T23:04:40.314Z,79.57
2023-01-15T23:07:07.486Z,79.37
2023-01-15T23:09:34.424Z,79.36
2023-01-15T23:12:01.684Z,78.51
2023-01-15T23:14:28.522Z,79.05
2023-01-15T23:16:55.469Z,79.17
2023-01-15T23:19:22.171Z,78.62
2023-01-15T23:21:48.765Z,78.85
2023-01-15T23:24:15.352Z,78.62
2023-01-15T23:26:42.321Z,78.77
2023-01-15T23:29:08.951Z,79.86
2023-01-15T23:31:35.919Z,79.87
2023-01-15T23:34:02.539Z,79.42
2023-01-15T23:36:29.429Z,79.26
2023-01-15T23:38:58.777Z,79.92
2023-01-15T23:41:47.197Z,79.95
2023-01-15T23:44:33.855Z,80.45
2023-01-15T23:47:00.586Z,80.16
2023-01-15T23:49:27.640Z,80.58
2023-01-15T23:51:54.270Z,80.86
2023-01-15T23:54:20.949Z,80.80
2023-01-15T23:56:48.976Z,80.73
2023-01-15T23:59:15.605Z,81.02
